Meteo Giornale » Osservazioni meteo Italia » Palermo-Punta Raisi

ore: 16:50 - Osservazioni Meteo Palermo-Punta Raisi
Lat. 38° 11' N Lon. 13° 6' E Alt. 21 metri s.l.m.

coperto_pioggia Europe/Rome

12 °C

Pioggia

Temp. 24 Ore

11 °C

18 °C

Sud

11.1 Km/h

Dew point 9 °C

Umidità 81 %

Visibilità  7 Km

Il sole sorge alle ore 07:17

Il sole tramonta alle ore 17:20

Data e Ora Cielo e Fenomeni T °C DP °C Um. % Pres. hPa Vis. km Vento km/h
Oggi h: 16:50 coperto_pioggia Pioggia 12 9 81 1016 7 S 11.1
Oggi h: 16:20 coperto_pioggia Pioggia 12 9 81 1017 7 S 16.7
Oggi h: 15:50 coperto_pioggia Pioggia 11 10 93 1017 5 S/SO 20.3
Oggi h: 15:20 nuvoloso_temporali Temporale con Pioggia 12 9 81 1016 6 S 9.3
Oggi h: 14:50 coperto_pioggia Pioggia Debole 12 9 81 1016 10 S/SE 9.3
Oggi h: 14:20 coperto_pioggia Pioggia Debole 12 9 81 1016 10 S 14.8
Oggi h: 13:50 coperto_pioggia Pioggia Debole 12 9 81 1017 8 S 16.7
Oggi h: 13:20 coperto_pioggia Pioggia Debole 12 8 76 1018 7 S 25.9
Oggi h: 12:50 coperto_pioggia Pioggia 11 9 87 1018 4 S/SO 25.9
Oggi h: 12:20 coperto_pioggia Pioggia Debole 14 12 87 1017 8 O/NO 14.8
Oggi h: 11:50 coperto_pioggia Pioggia Debole 14 11 82 1018 9 O/NO 14.8
Oggi h: 11:20 coperto_pioggia Pioggia Debole 15 10 72 1018 10 N 5.5
Oggi h: 10:50 coperto Coperto 14 11 82 1018 10 N 5.5
Oggi h: 10:20 coperto_pioggia Pioggia Debole 14 10 76 1018 10 O 13
Oggi h: 09:50 coperto_pioggia Pioggia Debole 14 9 71 1018 10 N 1.8
Oggi h: 09:20 coperto_pioggia Pioggia Debole 14 9 71 1018 8 N 0
Oggi h: 08:50 coperto_pioggia Pioggia Debole 14 9 71 1017 8 N 5.5
Oggi h: 08:20 coperto_pioggia Pioggia Debole 14 9 71 1017 10 NE 7.4
Oggi h: 07:50 coperto_pioggia Pioggia Debole 15 9 67 1017 10 O 20.3
Oggi h: 07:20 coperto_pioggia Pioggia Debole 15 8 62 1017 10 N 5.5
Oggi h: 06:50 molto_nuvoloso Molto Nuvoloso 15 7 58 1016 10 N 5.5
Oggi h: 06:20 coperto_pioggia Pioggia Debole 15 7 58 1016 10 N 3.7
Oggi h: 05:50 coperto_pioggia Pioggia Debole 16 7 55 1016 10 SE 22.2
Oggi h: 05:20 coperto_pioggia Pioggia 15 7 58 1016 10 S/SE 25.9
Oggi h: 04:50 molto_nuvoloso Molto Nuvoloso 16 5 47 1015 10 S/SE 35.2
Oggi h: 04:20 molto_nuvoloso Molto Nuvoloso 17 5 45 1015 10 S/SE 38.8
Oggi h: 03:50 coperto_pioggia Pioviggine Leggera 17 5 45 1015 10 S/SE 35.2
Oggi h: 03:20 molto_nuvoloso Molto Nuvoloso 17 4 41 1016 10 SE 24
Oggi h: 02:50 molto_nuvoloso Molto Nuvoloso 16 5 47 1016 10 S/SE 27.8
Oggi h: 02:20 molto_nuvoloso Molto Nuvoloso 17 3 39 1016 10 S/SE 25.9
Oggi h: 01:50 molto_nuvoloso Molto Nuvoloso 17 4 41 1016 10 S/SE 24
Oggi h: 01:20 molto_nuvoloso Molto Nuvoloso 16 6 51 1017 10 SE 22.2
Oggi h: 00:50 molto_nuvoloso Molto Nuvoloso 16 5 47 1017 10 SE 31.5
Oggi h: 00:20 molto_nuvoloso Molto Nuvoloso 16 6 51 1017 9 E/SE 29.6
Ieri h: 23:50 molto_nuvoloso Molto Nuvoloso 16 6 51 1017 9 SE 29.6
Ieri h: 23:20 nuvoloso Nuvoloso 16 6 51 1017 10 E/SE 37
Ieri h: 22:50 nuvoloso Nuvoloso 16 6 51 1017 10 SE 29.6
Ieri h: 22:20 nuvoloso Nuvoloso 17 6 48 1017 10 E/SE 37
Ieri h: 21:50 nuvoloso Nuvoloso 17 5 45 1017 10 E/SE 35.2
Ieri h: 21:20 nuvoloso Nuvoloso 17 6 48 1017 10 SE 40.7
Ieri h: 20:50 coperto_pioggia Pioviggine Leggera 17 6 48 1017 10 S/SE 27.8
Ieri h: 20:20 nuvoloso Nuvoloso 18 6 45 1017 10 SE 25.9
Ieri h: 19:50 nuvoloso Nuvoloso 17 6 48 1017 10 SE 24
Ieri h: 19:20 nuvoloso Nuvoloso 17 6 48 1017 10 SE 33.3
Ieri h: 18:50 molto_nuvoloso Molto Nuvoloso 18 6 45 1016 10 SE 29.6
Ieri h: 18:20 coperto_pioggia Pioviggine Leggera 16 8 58 1017 10 S/SE 33.3
Ieri h: 17:50 molto_nuvoloso Molto Nuvoloso 17 7 51 1016 10 S/SE 35.2
Ieri h: 17:20 nuvoloso Nuvoloso 17 7 51 1016 10 S/SE 35.2
Ieri h: 16:50 molto_nuvoloso Molto Nuvoloso 17 7 51 1016 10 S/SE 35.2